Time;durP1;ratioP1;P1;durP2;ratioP2;P2;SDS_P1;SDS_P2;PMS_P1;PMS_P2;Temp;Humidity;BMP_temperature;BMP_pressure;BME280_temperature;BME280_humidity;BME280_pressure;Samples;Min_cycle;Max_cycle;Signal;HPM_P1;HPM_P2
2021/08/17 00:00:24;;;;;;;16.23;10.80;;;640.50;1612.80;;;;;;5090202;28;20017;-58
2021/08/17 00:02:50;;;;;;;12.70;10.18;;;640.50;1612.80;;;;;;5090297;28;20059;-58
2021/08/17 00:05:15;;;;;;;12.68;9.75;;;640.50;1612.80;;;;;;5090216;28;20028;-58
2021/08/17 00:07:41;;;;;;;20.52;11.23;;;640.40;1638.40;;;;;;5090359;28;20038;-58
2021/08/17 00:10:08;;;;;;;21.35;10.35;;;640.40;1638.40;;;;;;5090103;28;20115;-59
2021/08/17 00:12:34;;;;;;;13.75;10.85;;;640.30;1664.00;;;;;;5090387;28;20060;-58
2021/08/17 00:14:59;;;;;;;12.95;10.27;;;640.20;1689.60;;;;;;5090082;28;20052;-58
2021/08/17 00:17:25;;;;;;;16.88;10.40;;;640.20;1638.40;;;;;;5090211;28;20541;-57
2021/08/17 00:19:51;;;;;;;11.90;9.85;;;640.20;1612.80;;;;;;5090229;28;20107;-57
2021/08/17 00:22:22;;;;;;;15.77;9.52;;;640.40;1612.80;;;;;;5090123;28;20064;-58
2021/08/17 00:24:48;;;;;;;14.70;9.60;;;640.30;1587.20;;;;;;5090032;28;20047;-59
2021/08/17 00:27:14;;;;;;;13.93;9.43;;;640.40;1561.60;;;;;;5090222;28;20020;-57
2021/08/17 00:29:39;;;;;;;15.13;9.50;;;640.50;1536.00;;;;;;5089827;28;20367;-58
2021/08/17 00:32:05;;;;;;;10.95;9.68;;;640.50;1510.40;;;;;;5090308;28;20104;-59
2021/08/17 00:34:31;;;;;;;14.18;10.52;;;640.50;1561.60;;;;;;5090068;28;20078;-58
2021/08/17 00:36:57;;;;;;;10.80;9.23;;;640.60;1510.40;;;;;;5089610;28;20036;-58
2021/08/17 00:39:23;;;;;;;13.85;10.05;;;640.50;1510.40;;;;;;5090151;28;20123;-58
2021/08/17 00:41:49;;;;;;;11.48;8.45;;;640.60;1484.80;;;;;;5090028;28;20099;-58
2021/08/17 00:44:33;;;;;;;13.18;9.30;;;640.60;1433.60;;;;;;5090123;28;20048;-58
2021/08/17 00:47:00;;;;;;;12.93;9.10;;;640.60;1433.60;;;;;;5089775;28;20013;-58
2021/08/17 00:49:27;;;;;;;13.02;8.32;;;640.60;1459.20;;;;;;5089935;28;20088;-58
2021/08/17 00:52:06;;;;;;;11.50;8.80;;;640.60;1433.60;;;;;;5090491;28;20085;-58
2021/08/17 00:54:34;;;;;;;13.65;9.40;;;640.50;1459.20;;;;;;5093632;28;20048;-57
2021/08/17 00:57:01;;;;;;;15.43;9.02;;;640.60;1433.60;;;;;;5093613;28;20074;-58
2021/08/17 00:59:31;;;;;;;19.10;10.25;;;640.50;1433.60;;;;;;5093347;28;20227;-58
2021/08/17 01:01:57;;;;;;;12.30;8.88;;;640.60;1433.60;;;;;;5093571;28;20169;-57
2021/08/17 01:04:23;;;;;;;11.93;8.15;;;640.50;1433.60;;;;;;5093885;28;20056;-58
2021/08/17 01:06:49;;;;;;;15.35;9.90;;;640.50;1408.00;;;;;;5093312;28;20520;-57
2021/08/17 01:09:15;;;;;;;18.02;10.18;;;640.50;1433.60;;;;;;5093416;28;20040;-58
2021/08/17 01:11:45;;;;;;;12.10;9.20;;;640.50;1408.00;;;;;;5093496;28;20024;-57
2021/08/17 01:14:13;;;;;;;12.00;9.90;;;640.50;1459.20;;;;;;5093381;28;20419;-57
2021/08/17 01:16:38;;;;;;;14.13;10.40;;;640.30;1587.20;;;;;;5093496;28;20123;-58
2021/08/17 01:19:04;;;;;;;9.77;8.65;;;640.20;1587.20;;;;;;5093321;28;20480;-58
2021/08/17 01:21:33;;;;;;;18.55;10.70;;;640.40;1510.40;;;;;;5092976;28;20024;-57
2021/08/17 01:23:58;;;;;;;12.15;9.10;;;640.30;1536.00;;;;;;5093177;28;20024;-58
2021/08/17 01:26:24;;;;;;;13.02;9.00;;;640.50;1433.60;;;;;;5093405;28;20020;-58
2021/08/17 01:28:50;;;;;;;11.65;9.05;;;640.50;1433.60;;;;;;5093036;28;20024;-58
2021/08/17 01:31:16;;;;;;;16.27;8.50;;;640.60;1408.00;;;;;;5093416;28;20418;-58
2021/08/17 01:33:41;;;;;;;14.13;8.23;;;640.60;1356.80;;;;;;5093126;28;20074;-57
2021/08/17 01:36:07;;;;;;;16.77;9.82;;;640.70;1305.60;;;;;;5092798;28;20085;-58
2021/08/17 01:38:33;;;;;;;15.35;9.40;;;640.90;1356.80;;;;;;5090688;28;20135;-58
2021/08/17 01:40:59;;;;;;;13.70;8.82;;;640.90;1331.20;;;;;;5092902;28;20465;-57
2021/08/17 01:43:24;;;;;;;14.90;9.15;;;640.90;1356.80;;;;;;5093177;28;20024;-57
2021/08/17 01:46:01;;;;;;;14.82;8.65;;;640.60;1356.80;;;;;;5092809;28;20070;-57
2021/08/17 01:48:29;;;;;;;14.85;9.77;;;640.90;1331.20;;;;;;5092778;28;20035;-59
2021/08/17 01:50:55;;;;;;;15.50;8.95;;;665.60;1305.60;;;;;;5093078;28;20283;-57
2021/08/17 01:53:22;;;;;;;16.83;10.85;;;665.60;1305.60;;;;;;5092710;28;20064;-57
2021/08/17 01:55:50;;;;;;;12.77;9.68;;;665.80;1280.00;;;;;;5092377;28;20198;-58
2021/08/17 01:58:15;;;;;;;15.23;10.18;;;665.60;1331.20;;;;;;5092588;28;20052;-58
2021/08/17 02:00:44;;;;;;;14.13;9.52;;;665.60;1305.60;;;;;;5092754;28;20024;-58
2021/08/17 02:03:10;;;;;;;18.13;10.52;;;665.60;1331.20;;;;;;5091886;28;20162;-57
2021/08/17 02:05:36;;;;;;;14.70;9.52;;;665.60;1356.80;;;;;;5091836;28;20476;-58
2021/08/17 02:08:05;;;;;;;15.75;9.57;;;640.90;1331.20;;;;;;5092457;28;20096;-57
2021/08/17 02:10:31;;;;;;;18.20;11.02;;;665.60;1331.20;;;;;;5092712;28;20027;-57
2021/08/17 02:12:57;;;;;;;16.33;9.85;;;665.60;1331.20;;;;;;5092277;28;20176;-57
2021/08/17 02:15:23;;;;;;;16.63;10.40;;;665.60;1382.40;;;;;;5092452;28;20103;-58
2021/08/17 02:17:49;;;;;;;12.52;10.93;;;640.90;1356.80;;;;;;5092257;28;20392;-57
2021/08/17 02:20:15;;;;;;;17.83;11.00;;;665.60;1356.80;;;;;;5092407;28;20024;-57
2021/08/17 02:22:40;;;;;;;17.73;11.27;;;665.60;1356.80;;;;;;5091855;28;20440;-57
2021/08/17 02:25:07;;;;;;;15.52;10.73;;;665.60;1331.20;;;;;;5092065;28;20013;-58
2021/08/17 02:27:37;;;;;;;18.05;11.48;;;665.70;1331.20;;;;;;5090675;28;20437;-57
2021/08/17 02:30:04;;;;;;;16.52;11.85;;;665.80;1331.20;;;;;;5092093;28;20541;-57
2021/08/17 02:32:31;;;;;;;14.90;11.40;;;665.70;1356.80;;;;;;5092153;28;20095;-57
2021/08/17 02:34:56;;;;;;;13.38;10.85;;;665.70;1356.80;;;;;;5092001;28;20040;-57
2021/08/17 02:37:22;;;;;;;14.77;12.07;;;665.80;1331.20;;;;;;5091976;28;20119;-58
2021/08/17 02:39:48;;;;;;;17.67;13.15;;;665.90;1305.60;;;;;;5091687;28;20074;-59
2021/08/17 02:42:14;;;;;;;16.27;11.38;;;665.90;1305.60;;;;;;5091801;28;20054;-57
2021/08/17 02:44:39;;;;;;;20.30;13.05;;;665.90;1305.60;;;;;;5091792;28;20020;-57
2021/08/17 02:47:05;;;;;;;16.55;12.10;;;666.00;1305.60;;;;;;5092196;28;20548;-57
2021/08/17 02:49:32;;;;;;;17.98;12.30;;;666.00;1280.00;;;;;;5092017;28;20107;-57
2021/08/17 02:52:00;;;;;;;13.00;11.45;;;666.00;1280.00;;;;;;5091426;28;20498;-58
2021/08/17 02:54:26;;;;;;;18.08;12.60;;;666.00;1280.00;;;;;;5091619;28;20347;-57
2021/08/17 02:56:52;;;;;;;22.98;14.20;;;666.00;1280.00;;;;;;5091399;28;20496;-57
2021/08/17 02:59:18;;;;;;;20.95;12.82;;;666.00;1280.00;;;;;;5091163;28;20044;-58
2021/08/17 03:01:43;;;;;;;22.77;14.43;;;666.00;1280.00;;;;;;5091701;28;20059;-57
2021/08/17 03:04:09;;;;;;;20.42;14.00;;;666.20;1254.40;;;;;;5091318;28;20023;-57
2021/08/17 03:06:35;;;;;;;23.25;14.80;;;666.30;1254.40;;;;;;5090188;28;20025;-57
2021/08/17 03:09:01;;;;;;;21.85;15.55;;;666.30;1228.80;;;;;;5091347;28;20526;-58
2021/08/17 03:11:26;;;;;;;24.20;16.92;;;666.50;1228.80;;;;;;5091272;28;20096;-56
2021/08/17 03:13:52;;;;;;;20.63;15.38;;;691.20;1177.60;;;;;;5091276;28;20509;-57
2021/08/17 03:16:18;;;;;;;19.13;15.60;;;691.20;1228.80;;;;;;5090609;28;20378;-56
2021/08/17 03:18:44;;;;;;;24.10;16.73;;;691.20;1228.80;;;;;;5091318;28;20061;-57
2021/08/17 03:21:09;;;;;;;23.38;15.63;;;666.50;1228.80;;;;;;5090877;28;20470;-57
2021/08/17 03:23:35;;;;;;;24.10;16.90;;;666.50;1228.80;;;;;;5090987;28;20024;-57
2021/08/17 03:26:01;;;;;;;25.67;16.27;;;691.20;1203.20;;;;;;5091056;28;20417;-56
2021/08/17 03:28:26;;;;;;;22.48;17.80;;;691.20;1203.20;;;;;;5090897;28;20055;-57
2021/08/17 03:30:52;;;;;;;17.88;15.38;;;691.20;1228.80;;;;;;5090916;28;20365;-57
2021/08/17 03:33:18;;;;;;;23.85;18.17;;;666.50;1228.80;;;;;;5090773;28;20028;-58
2021/08/17 03:35:44;;;;;;;21.92;17.73;;;666.50;1228.80;;;;;;5090850;28;20027;-56
2021/08/17 03:38:10;;;;;;;21.90;17.52;;;666.50;1228.80;;;;;;5090543;28;20036;-57
2021/08/17 03:40:35;;;;;;;35.13;18.50;;;666.40;1228.80;;;;;;5091147;28;20615;-56
2021/08/17 03:43:01;;;;;;;27.42;17.23;;;666.40;1203.20;;;;;;5091366;28;20020;-56
2021/08/17 03:45:27;;;;;;;24.02;18.83;;;691.20;1203.20;;;;;;5091094;28;20440;-56
2021/08/17 03:47:53;;;;;;;21.08;18.88;;;691.20;1203.20;;;;;;5090847;28;20023;-56
2021/08/17 03:50:19;;;;;;;24.75;18.75;;;691.20;1203.20;;;;;;5090623;28;20066;-66
2021/08/17 03:52:45;;;;;;;24.20;19.20;;;691.40;1177.60;;;;;;5090948;28;20020;-57
2021/08/17 03:55:12;;;;;;;21.35;18.92;;;691.30;1203.20;;;;;;5090764;28;20185;-59
2021/08/17 03:57:38;;;;;;;23.23;18.13;;;691.40;1203.20;;;;;;5090557;28;20028;-58
2021/08/17 04:00:11;;;;;;;21.77;17.50;;;691.40;1228.80;;;;;;5090787;28;20081;-58
2021/08/17 04:02:37;;;;;;;19.13;14.38;;;691.20;1280.00;;;;;;5090695;28;20024;-59
2021/08/17 04:05:03;;;;;;;21.75;12.82;;;666.30;1408.00;;;;;;5090512;28;20542;-61
2021/08/17 04:07:29;;;;;;;20.67;14.63;;;665.60;1484.80;;;;;;5090390;28;20025;-58
2021/08/17 04:09:57;;;;;;;26.25;14.07;;;665.60;1433.60;;;;;;5090460;28;20475;-57
2021/08/17 04:12:22;;;;;;;19.33;14.60;;;665.70;1408.00;;;;;;5090572;28;20035;-59
2021/08/17 04:14:48;;;;;;;19.77;14.07;;;665.80;1408.00;;;;;;5090471;28;20412;-59
2021/08/17 04:17:14;;;;;;;20.50;15.18;;;665.90;1356.80;;;;;;5090450;28;20070;-60
2021/08/17 04:19:40;;;;;;;18.02;13.27;;;666.10;1356.80;;;;;;5090264;28;20444;-57
2021/08/17 04:22:06;;;;;;;20.20;13.48;;;666.30;1356.80;;;;;;5090118;28;20032;-58
2021/08/17 04:24:32;;;;;;;18.88;10.82;;;666.30;1356.80;;;;;;5090216;28;20063;-59
2021/08/17 04:26:58;;;;;;;23.33;11.07;;;666.50;1356.80;;;;;;5090555;28;20040;-61
2021/08/17 04:29:23;;;;;;;19.77;10.90;;;666.50;1382.40;;;;;;5094480;28;20068;-59
2021/08/17 04:31:49;;;;;;;13.10;10.20;;;666.50;1433.60;;;;;;5094244;28;20077;-58
2021/08/17 04:34:15;;;;;;;17.83;12.05;;;666.50;1433.60;;;;;;5094621;28;20024;-57
2021/08/17 04:36:41;;;;;;;16.80;11.20;;;666.40;1484.80;;;;;;5094187;28;20025;-57
2021/08/17 04:39:06;;;;;;;19.42;11.82;;;666.30;1510.40;;;;;;5094102;28;20543;-57
2021/08/17 04:41:32;;;;;;;17.23;11.20;;;666.30;1536.00;;;;;;5094195;28;20028;-57
2021/08/17 04:43:58;;;;;;;16.90;11.23;;;666.30;1536.00;;;;;;5093822;28;20054;-58
2021/08/17 04:46:23;;;;;;;22.27;11.90;;;666.20;1561.60;;;;;;5094181;28;20032;-60
2021/08/17 04:48:50;;;;;;;13.95;11.90;;;666.10;1587.20;;;;;;5094230;28;20024;-58
2021/08/17 04:51:16;;;;;;;16.15;12.68;;;691.80;1510.40;;;;;;5093901;28;20355;-60
2021/08/17 04:53:42;;;;;;;21.20;11.65;;;717.40;1484.80;;;;;;5094046;28;20035;-61
2021/08/17 04:56:08;;;;;;;14.25;11.30;;;742.40;1484.80;;;;;;5093491;28;20498;-59
2021/08/17 04:58:34;;;;;;;23.48;13.02;;;742.80;1459.20;;;;;;5093814;28;20032;-60
2021/08/17 05:01:00;;;;;;;17.52;11.68;;;743.10;1459.20;;;;;;5093602;28;20016;-58
2021/08/17 05:03:26;;;;;;;14.85;11.10;;;743.20;1459.20;;;;;;5093886;28;20107;-59
2021/08/17 05:05:52;;;;;;;22.60;12.27;;;743.30;1433.60;;;;;;5093601;28;20114;-58
2021/08/17 05:08:18;;;;;;;20.67;13.68;;;742.60;1510.40;;;;;;5093367;28;20104;-60
2021/08/17 05:10:44;;;;;;;20.55;11.40;;;768.50;1433.60;;;;;;5093833;28;20441;-58
2021/08/17 05:13:10;;;;;;;19.17;12.27;;;793.60;1459.20;;;;;;5093505;28;20034;-60
2021/08/17 05:15:36;;;;;;;22.92;10.93;;;794.00;1433.60;;;;;;5093359;28;20111;-58
2021/08/17 05:18:05;;;;;;;17.65;10.63;;;793.90;1459.20;;;;;;5093479;28;20107;-59
2021/08/17 05:20:31;;;;;;;21.30;10.68;;;794.40;1433.60;;;;;;5093171;28;20016;-60
2021/08/17 05:22:57;;;;;;;19.67;11.57;;;819.80;1356.80;;;;;;5093362;28;20043;-61
2021/08/17 05:25:23;;;;;;;16.15;10.02;;;844.90;1356.80;;;;;;5093572;28;20012;-57
2021/08/17 05:27:49;;;;;;;16.15;9.95;;;844.90;1356.80;;;;;;5093222;28;20036;-60
2021/08/17 05:30:15;;;;;;;18.63;9.75;;;845.40;1331.20;;;;;;5093284;28;20016;-57
2021/08/17 05:32:41;;;;;;;15.10;10.95;;;845.40;1356.80;;;;;;5093304;28;20400;-57
2021/08/17 05:35:08;;;;;;;14.25;9.50;;;870.50;1305.60;;;;;;5092740;28;20025;-59
2021/08/17 05:37:33;;;;;;;14.27;8.77;;;845.70;1331.20;;;;;;5093089;28;20115;-59
2021/08/17 05:39:59;;;;;;;18.77;8.63;;;845.40;1331.20;;;;;;5092905;28;20059;-62
2021/08/17 05:42:25;;;;;;;14.75;7.88;;;819.30;1408.00;;;;;;5093373;28;20024;-61
2021/08/17 05:44:53;;;;;;;16.20;7.28;;;768.90;1484.80;;;;;;5093060;28;20035;-61
2021/08/17 05:47:18;;;;;;;17.52;8.13;;;743.20;1536.00;;;;;;5092941;28;20066;-56
2021/08/17 05:49:44;;;;;;;12.32;8.00;;;742.50;1612.80;;;;;;5093010;28;20575;-59
2021/08/17 05:52:13;;;;;;;15.57;7.57;;;717.70;1612.80;;;;;;5092751;28;20065;-59
2021/08/17 05:54:39;;;;;;;16.45;7.20;;;742.50;1638.40;;;;;;5092554;28;20044;-60
2021/08/17 05:57:05;;;;;;;15.18;7.45;;;742.40;1638.40;;;;;;5092666;28;20024;-58
2021/08/17 05:59:33;;;;;;;14.85;7.78;;;742.50;1612.80;;;;;;5092868;28;20077;-57
2021/08/17 06:02:00;;;;;;;13.57;8.45;;;743.10;1561.60;;;;;;5092314;28;20055;-57
2021/08/17 06:04:26;;;;;;;12.93;9.30;;;819.30;1408.00;;;;;;5092932;28;20032;-58
2021/08/17 06:06:53;;;;;;;10.98;6.53;;;844.80;1356.80;;;;;;5092567;28;20074;-57
2021/08/17 06:09:19;;;;;;;11.10;8.00;;;870.50;1305.60;;;;;;5092287;28;20020;-57
2021/08/17 06:11:46;;;;;;;11.10;9.27;;;871.10;1280.00;;;;;;5092586;28;20374;-58
2021/08/17 06:14:12;;;;;;;10.60;8.80;;;896.40;1203.20;;;;;;5092343;28;20515;-59
2021/08/17 06:16:38;;;;;;;10.18;6.70;;;896.60;1177.60;;;;;;5092183;28;20024;-59
2021/08/17 06:19:04;;;;;;;13.50;7.22;;;896.80;1177.60;;;;;;5092615;28;20462;-58
2021/08/17 06:21:31;;;;;;;14.80;8.82;;;896.50;1177.60;;;;;;5092232;28;20473;-59
2021/08/17 06:23:58;;;;;;;13.95;6.45;;;896.60;1177.60;;;;;;5092266;28;20024;-57
2021/08/17 06:26:24;;;;;;;10.93;9.50;;;871.30;1203.20;;;;;;5092424;28;20039;-57
2021/08/17 06:28:49;;;;;;;11.20;6.25;;;871.30;1203.20;;;;;;5092084;28;20454;-58
2021/08/17 06:31:22;;;;;;;10.02;8.70;;;870.90;1228.80;;;;;;5092045;28;20027;-57
2021/08/17 06:33:49;;;;;;;9.80;7.80;;;870.60;1254.40;;;;;;5091812;28;20490;-58
2021/08/17 06:36:15;;;;;;;9.70;5.78;;;845.30;1280.00;;;;;;5092034;28;20424;-57
2021/08/17 06:38:42;;;;;;;8.40;5.35;;;819.40;1356.80;;;;;;5091836;28;20043;-56
2021/08/17 06:41:08;;;;;;;8.93;5.45;;;768.90;1433.60;;;;;;5091967;28;20031;-58
2021/08/17 06:43:34;;;;;;;9.48;5.35;;;743.10;1484.80;;;;;;5091920;28;20020;-57
2021/08/17 06:46:00;;;;;;;11.60;5.10;;;742.50;1536.00;;;;;;5091619;28;20024;-55
2021/08/17 06:48:26;;;;;;;10.45;8.80;;;742.70;1510.40;;;;;;5092119;28;20032;-57
2021/08/17 06:50:52;;;;;;;8.55;4.78;;;819.20;1331.20;;;;;;5091138;28;20454;-57
2021/08/17 06:53:18;;;;;;;9.57;8.63;;;794.50;1356.80;;;;;;5091441;28;20031;-57
2021/08/17 06:55:44;;;;;;;12.43;8.95;;;845.70;1280.00;;;;;;5091493;28;20044;-58
2021/08/17 06:58:14;;;;;;;9.35;8.32;;;871.30;1203.20;;;;;;5091605;28;20036;-58
2021/08/17 07:00:41;;;;;;;13.88;8.63;;;922.30;1126.40;;;;;;5091317;28;20028;-57
2021/08/17 07:03:08;;;;;;;7.32;5.55;;;973.00;1049.60;;;;;;5091603;28;20035;-57
2021/08/17 07:05:40;;;;;;;10.40;9.55;;;947.80;1075.20;;;;;;5091548;28;20031;-57
2021/08/17 07:08:06;;;;;;;10.75;6.75;;;973.30;1024.00;;;;;;5091307;28;20024;-57
2021/08/17 07:10:34;;;;;;;8.98;7.75;;;973.20;1024.00;;;;;;5091348;28;20383;-57
2021/08/17 07:12:59;;;;;;;11.00;10.13;;;947.50;1049.60;;;;;;5091130;28;20024;-57
2021/08/17 07:15:25;;;;;;;10.73;9.55;;;972.80;1049.60;;;;;;5091477;28;20507;-57
2021/08/17 07:17:51;;;;;;;10.48;9.52;;;998.70;998.40;;;;;;5091003;28;20036;-57
2021/08/17 07:20:17;;;;;;;10.00;9.13;;;999.10;998.40;;;;;;5091156;28;20037;-57
2021/08/17 07:22:43;;;;;;;10.10;9.10;;;1024.20;972.80;;;;;;5091188;28;20073;-58
2021/08/17 07:25:09;;;;;;;10.75;9.70;;;1049.70;972.80;;;;;;5090903;28;20023;-58
2021/08/17 07:27:35;;;;;;;10.13;9.25;;;1049.90;972.80;;;;;;5090979;28;20020;-58
2021/08/17 07:30:02;;;;;;;10.32;8.90;;;;;;;;;;5090765;28;20074;-57
2021/08/17 07:32:28;;;;;;;9.98;9.18;;;;;;;;;;5090897;28;20028;-57
2021/08/17 07:34:54;;;;;;;13.68;12.63;;;;;;;;;;5091158;28;20024;-57
2021/08/17 07:37:21;;;;;;;10.20;9.40;;;;;;;;;;5090839;28;20032;-60
2021/08/17 07:39:47;;;;;;;10.68;9.68;;;;;;;;;;5090759;28;20028;-57
2021/08/17 07:42:13;;;;;;;9.45;8.68;;;;;;;;;;5090937;28;20072;-57
2021/08/17 07:44:39;;;;;;;10.32;9.18;;;;;;;;;;5090378;28;20081;-57
2021/08/17 07:47:05;;;;;;;8.85;8.15;;;;;;;;;;5090747;28;20463;-57
2021/08/17 07:49:31;;;;;;;10.15;9.35;;;1024.20;947.20;;;;;;5090730;28;20052;-57
2021/08/17 07:51:57;;;;;;;9.23;8.43;;;1024.30;947.20;;;;;;5090520;28;20128;-57
2021/08/17 07:54:22;;;;;;;10.40;9.50;;;1049.60;972.80;;;;;;5090638;28;20020;-59
2021/08/17 07:56:48;;;;;;;12.95;9.50;;;1024.50;947.20;;;;;;5090431;28;20063;-57
2021/08/17 07:59:14;;;;;;;16.00;9.00;;;1024.30;947.20;;;;;;5090471;28;20035;-57
2021/08/17 08:01:40;;;;;;;11.80;8.50;;;998.60;998.40;;;;;;5089671;28;20366;-57
2021/08/17 08:04:05;;;;;;;8.20;7.60;;;998.80;972.80;;;;;;5090535;28;20070;-57
2021/08/17 08:06:31;;;;;;;9.27;8.35;;;998.50;998.40;;;;;;5090386;28;20458;-57
2021/08/17 08:08:57;;;;;;;9.27;8.20;;;998.40;998.40;;;;;;5090333;28;20074;-57
2021/08/17 08:11:23;;;;;;;8.85;8.10;;;998.40;998.40;;;;;;5090711;28;20429;-57
2021/08/17 08:13:50;;;;;;;9.15;8.27;;;998.80;972.80;;;;;;5090114;28;20024;-57
2021/08/17 08:16:16;;;;;;;9.20;8.30;;;999.20;947.20;;;;;;5090192;28;20590;-57
2021/08/17 08:18:42;;;;;;;8.90;8.02;;;999.30;947.20;;;;;;5090152;28;20039;-57
2021/08/17 08:21:07;;;;;;;8.05;7.32;;;999.00;972.80;;;;;;5090085;28;20028;-57
2021/08/17 08:23:36;;;;;;;9.32;7.72;;;999.00;972.80;;;;;;5090149;28;20028;-57
2021/08/17 08:26:02;;;;;;;8.60;7.78;;;998.80;972.80;;;;;;5090471;28;20067;-57
2021/08/17 08:28:28;;;;;;;8.25;7.53;;;999.30;947.20;;;;;;5090009;28;20035;-57
2021/08/17 08:30:54;;;;;;;7.93;7.22;;;1024.00;947.20;;;;;;5090344;28;20348;-57
2021/08/17 08:33:19;;;;;;;9.27;7.57;;;998.90;947.20;;;;;;5089842;28;20077;-57
2021/08/17 08:35:45;;;;;;;8.52;7.63;;;998.70;972.80;;;;;;5089956;28;20024;-57
2021/08/17 08:38:11;;;;;;;10.57;7.55;;;998.40;998.40;;;;;;5090155;28;20036;-57
2021/08/17 08:40:37;;;;;;;9.15;7.28;;;973.10;998.40;;;;;;5089941;28;20043;-58
2021/08/17 08:43:03;;;;;;;8.05;6.50;;;922.10;1075.20;;;;;;5090212;28;20029;-57
2021/08/17 08:45:29;;;;;;;9.20;6.38;;;870.90;1126.40;;;;;;5089816;28;20085;-57
2021/08/17 08:47:55;;;;;;;10.82;6.57;;;845.40;1152.00;;;;;;5090300;28;20020;-57
2021/08/17 08:50:21;;;;;;;11.45;6.00;;;844.90;1203.20;;;;;;5090064;28;20024;-57
2021/08/17 08:52:47;;;;;;;9.80;5.07;;;819.80;1203.20;;;;;;5089744;28;20028;-57
2021/08/17 08:55:13;;;;;;;7.10;5.55;;;819.50;1203.20;;;;;;5089818;28;20088;-57
2021/08/17 08:57:39;;;;;;;7.05;5.13;;;819.30;1254.40;;;;;;5089530;28;20494;-57
2021/08/17 09:00:09;;;;;;;12.05;6.18;;;794.20;1254.40;;;;;;5089870;28;20024;-57
2021/08/17 09:02:35;;;;;;;6.40;5.70;;;794.00;1280.00;;;;;;5090121;28;20024;-57
2021/08/17 09:05:02;;;;;;;7.72;5.68;;;793.90;1305.60;;;;;;5089594;28;20382;-56
2021/08/17 09:07:33;;;;;;;9.45;6.35;;;793.90;1280.00;;;;;;5089756;28;20036;-58
2021/08/17 09:10:13;;;;;;;7.35;4.80;;;794.00;1280.00;;;;;;5088217;28;20032;-57
2021/08/17 09:12:50;;;;;;;8.60;5.40;;;768.80;1305.60;;;;;;5089568;28;20042;-57
2021/08/17 09:15:23;;;;;;;7.57;5.43;;;768.80;1305.60;;;;;;5093504;28;20374;-57
2021/08/17 09:17:56;;;;;;;8.65;5.43;;;793.70;1305.60;;;;;;5093331;28;20024;-57
2021/08/17 09:20:33;;;;;;;6.80;5.70;;;793.90;1305.60;;;;;;5093490;28;20166;-58
2021/08/17 09:23:19;;;;;;;9.27;6.05;;;768.90;1280.00;;;;;;5093191;28;20028;-57
2021/08/17 09:25:45;;;;;;;7.07;5.43;;;768.80;1305.60;;;;;;5093270;28;20028;-58
2021/08/17 09:28:24;;;;;;;8.07;5.38;;;768.80;1305.60;;;;;;5093313;28;20510;-56
2021/08/17 09:30:49;;;;;;;7.53;5.40;;;768.90;1305.60;;;;;;5093144;28;20024;-58
2021/08/17 09:33:15;;;;;;;5.97;4.75;;;768.80;1305.60;;;;;;5093365;28;20458;-56
2021/08/17 09:35:41;;;;;;;9.90;6.05;;;793.70;1331.20;;;;;;5093018;28;20355;-57
2021/08/17 09:38:13;;;;;;;7.03;5.50;;;793.60;1331.20;;;;;;5092893;28;20044;-57
2021/08/17 09:40:40;;;;;;;7.15;5.45;;;768.70;1331.20;;;;;;5093049;28;20028;-56
2021/08/17 09:43:21;;;;;;;7.55;5.60;;;768.90;1331.20;;;;;;5092875;28;20547;-57
2021/08/17 09:45:49;;;;;;;7.45;5.82;;;793.60;1331.20;;;;;;5092920;28;20101;-57
2021/08/17 09:48:16;;;;;;;6.82;5.05;;;768.90;1305.60;;;;;;5092964;28;20405;-56
2021/08/17 09:50:43;;;;;;;8.43;6.00;;;793.70;1331.20;;;;;;5093023;28;20027;-57
2021/08/17 09:53:18;;;;;;;7.25;5.30;;;768.90;1331.20;;;;;;5092914;28;20034;-56
2021/08/17 09:55:49;;;;;;;7.13;5.40;;;768.70;1331.20;;;;;;5092720;28;20067;-57
2021/08/17 09:58:21;;;;;;;6.88;5.32;;;768.80;1305.60;;;;;;5092802;28;20596;-57
2021/08/17 10:00:48;;;;;;;6.38;5.25;;;768.90;1331.20;;;;;;5092630;28;20042;-57
2021/08/17 10:03:15;;;;;;;7.72;5.05;;;768.70;1331.20;;;;;;5092867;28;20028;-56
2021/08/17 10:05:41;;;;;;;8.25;6.45;;;768.90;1331.20;;;;;;5092514;28;20024;-57
2021/08/17 10:08:11;;;;;;;7.65;5.15;;;768.90;1331.20;;;;;;5092506;28;20096;-57
2021/08/17 10:10:38;;;;;;;9.02;4.95;;;793.80;1331.20;;;;;;5092351;28;20035;-58
2021/08/17 10:13:04;;;;;;;8.73;5.82;;;793.80;1331.20;;;;;;5092687;28;20024;-57
2021/08/17 10:15:30;;;;;;;8.18;5.35;;;794.00;1331.20;;;;;;5092233;28;20023;-57
2021/08/17 10:17:59;;;;;;;9.00;5.35;;;794.00;1305.60;;;;;;5092432;28;20040;-58
2021/08/17 10:20:27;;;;;;;7.28;5.30;;;794.00;1305.60;;;;;;5092395;28;20115;-57
2021/08/17 10:22:53;;;;;;;7.35;5.20;;;793.90;1331.20;;;;;;5092086;28;20032;-57
2021/08/17 10:25:18;;;;;;;9.95;5.57;;;794.30;1280.00;;;;;;5091198;28;20023;-58
2021/08/17 10:27:45;;;;;;;7.85;5.95;;;794.10;1305.60;;;;;;5092176;28;20077;-58
2021/08/17 10:30:22;;;;;;;7.25;5.47;;;793.70;1331.20;;;;;;5092002;28;20031;-57
2021/08/17 10:32:58;;;;;;;8.25;5.47;;;793.90;1305.60;;;;;;5091922;28;20107;-58
2021/08/17 10:35:30;;;;;;;10.68;5.82;;;794.30;1305.60;;;;;;5092188;28;20107;-57
2021/08/17 10:38:11;;;;;;;10.00;6.67;;;819.40;1254.40;;;;;;5091774;28;20028;-57
2021/08/17 10:40:51;;;;;;;9.95;6.13;;;794.00;1280.00;;;;;;5091686;28;20059;-58
2021/08/17 10:43:21;;;;;;;9.30;5.68;;;794.00;1305.60;;;;;;5091834;28;20028;-58
2021/08/17 10:46:01;;;;;;;8.73;5.35;;;793.90;1305.60;;;;;;5091702;28;20506;-57
2021/08/17 10:48:45;;;;;;;9.50;5.93;;;793.70;1305.60;;;;;;5092024;28;20027;-58
2021/08/17 10:51:18;;;;;;;7.05;4.93;;;794.20;1305.60;;;;;;5091798;28;20032;-57
2021/08/17 10:53:44;;;;;;;19.95;6.20;;;794.30;1280.00;;;;;;5091889;28;20405;-57
2021/08/17 10:56:32;;;;;;;11.18;5.75;;;819.20;1254.40;;;;;;5091451;28;20048;-58
2021/08/17 10:58:58;;;;;;;10.60;6.13;;;794.50;1254.40;;;;;;5091308;28;20095;-57
2021/08/17 11:01:40;;;;;;;9.00;5.63;;;794.10;1280.00;;;;;;5091883;28;20038;-58
2021/08/17 11:04:18;;;;;;;8.13;5.25;;;794.00;1280.00;;;;;;5091590;28;20164;-58
2021/08/17 11:06:58;;;;;;;15.55;5.60;;;794.10;1280.00;;;;;;5091510;28;20029;-58
2021/08/17 11:09:35;;;;;;;8.23;5.18;;;794.30;1254.40;;;;;;5088880;28;20085;-57
2021/08/17 11:12:07;;;;;;;12.48;5.05;;;794.00;1280.00;;;;;;5091290;28;20024;-56
2021/08/17 11:14:35;;;;;;;7.50;5.43;;;793.80;1280.00;;;;;;5091310;28;20017;-57
2021/08/17 11:17:07;;;;;;;9.82;5.82;;;794.00;1280.00;;;;;;5091178;28;20044;-57
2021/08/17 11:19:40;;;;;;;8.02;5.63;;;794.00;1280.00;;;;;;5091259;28;20036;-57
2021/08/17 11:22:08;;;;;;;13.00;5.22;;;793.80;1305.60;;;;;;5091376;28;20594;-57
2021/08/17 11:24:39;;;;;;;7.45;5.10;;;794.10;1280.00;;;;;;5091037;28;20028;-57
2021/08/17 11:27:08;;;;;;;12.70;5.47;;;794.20;1280.00;;;;;;5091128;28;20028;-57
2021/08/17 11:29:38;;;;;;;12.00;5.95;;;793.90;1305.60;;;;;;5091065;28;20111;-57
2021/08/17 11:32:06;;;;;;;9.65;5.65;;;793.70;1305.60;;;;;;5091244;28;20020;-57
2021/08/17 11:34:38;;;;;;;10.85;6.00;;;768.90;1280.00;;;;;;5091040;28;20073;-57
2021/08/17 11:37:09;;;;;;;15.10;5.60;;;768.90;1280.00;;;;;;5090874;28;20073;-56
2021/08/17 11:39:42;;;;;;;10.88;6.07;;;768.60;1305.60;;;;;;5090647;28;20050;-57
2021/08/17 11:42:14;;;;;;;9.98;7.40;;;768.60;1305.60;;;;;;5090827;28;20056;-57
2021/08/17 11:44:41;;;;;;;9.85;6.60;;;768.90;1280.00;;;;;;5090791;28;20055;-58
2021/08/17 11:47:10;;;;;;;8.15;5.40;;;768.90;1280.00;;;;;;5090756;28;20059;-58
2021/08/17 11:49:37;;;;;;;10.30;5.82;;;768.80;1280.00;;;;;;5090598;28;20024;-57
2021/08/17 11:52:05;;;;;;;10.27;6.13;;;768.90;1280.00;;;;;;5090764;28;20469;-57
2021/08/17 11:54:33;;;;;;;9.05;5.40;;;768.80;1280.00;;;;;;5090202;28;20047;-57
2021/08/17 11:57:01;;;;;;;10.48;5.38;;;768.50;1305.60;;;;;;5090619;28;20039;-57
2021/08/17 11:59:38;;;;;;;7.00;5.90;;;768.50;1331.20;;;;;;5090473;28;20040;-57
2021/08/17 12:02:03;;;;;;;7.88;5.30;;;768.40;1331.20;;;;;;5090582;28;20024;-58
2021/08/17 12:04:29;;;;;;;7.22;5.68;;;768.10;1331.20;;;;;;5090446;28;20116;-59
2021/08/17 12:07:11;;;;;;;8.07;5.57;;;768.10;1305.60;;;;;;5090509;28;20095;-57
2021/08/17 12:09:38;;;;;;;8.88;5.45;;;743.00;1356.80;;;;;;5090475;28;20374;-57
2021/08/17 12:12:06;;;;;;;6.82;5.60;;;743.00;1356.80;;;;;;5090428;28;20534;-56